createdAt,value
2022-08-14T00:02:27.837Z,2.57
2022-08-14T00:05:00.963Z,2.30
2022-08-14T00:07:29.285Z,2.10
2022-08-14T00:10:49.420Z,2.50
2022-08-14T00:12:56.872Z,2.20
2022-08-14T00:15:29.980Z,2.13
2022-08-14T00:18:09.021Z,2.23
2022-08-14T00:20:45.214Z,2.13
2022-08-14T00:23:17.883Z,2.20
2022-08-14T00:25:54.107Z,2.53
2022-08-14T00:28:37.026Z,2.17
2022-08-14T00:31:07.992Z,2.20
2022-08-14T00:33:50.921Z,2.20
2022-08-14T00:36:36.780Z,2.17
2022-08-14T00:39:14.996Z,2.00
2022-08-14T00:41:48.127Z,2.53
2022-08-14T00:44:26.697Z,2.20
2022-08-14T00:47:03.418Z,2.20
2022-08-14T00:49:38.330Z,2.17
2022-08-14T00:52:17.581Z,2.00
2022-08-14T00:54:57.707Z,2.13
2022-08-14T00:57:30.339Z,2.20
2022-08-14T01:00:00.477Z,2.40
2022-08-14T01:02:31.675Z,2.20
2022-08-14T01:05:02.750Z,2.10
2022-08-14T01:07:41.471Z,2.00
2022-08-14T01:10:19.182Z,2.23
2022-08-14T01:12:48.692Z,2.20
2022-08-14T01:15:21.440Z,2.00
2022-08-14T01:18:27.213Z,2.30
2022-08-14T01:21:11.654Z,2.50
2022-08-14T01:23:46.702Z,2.17
2022-08-14T01:26:34.654Z,2.03
2022-08-14T01:29:07.478Z,2.10
2022-08-14T01:31:45.455Z,2.30
2022-08-14T01:35:18.820Z,2.40
2022-08-14T01:37:07.753Z,2.33
2022-08-14T01:39:40.349Z,2.10
2022-08-14T01:42:08.994Z,2.10
2022-08-14T01:44:57.618Z,2.60
2022-08-14T01:47:26.914Z,2.20
2022-08-14T01:50:02.135Z,2.50
2022-08-14T01:52:58.372Z,2.60
2022-08-14T01:55:30.487Z,2.53
2022-08-14T01:58:19.027Z,2.47
2022-08-14T02:00:48.414Z,2.50
2022-08-14T02:03:17.410Z,2.13
2022-08-14T02:05:46.090Z,2.60
2022-08-14T02:08:15.987Z,2.27
2022-08-14T02:11:14.335Z,2.63
2022-08-14T02:13:43.926Z,2.60
2022-08-14T02:16:22.407Z,2.57
2022-08-14T02:18:51.327Z,2.40
2022-08-14T02:21:23.384Z,2.30
2022-08-14T02:23:54.499Z,2.63
2022-08-14T02:26:29.174Z,2.67
2022-08-14T02:29:03.506Z,2.40
2022-08-14T02:31:43.596Z,2.53
2022-08-14T02:34:22.541Z,2.70
2022-08-14T02:37:03.639Z,2.20
2022-08-14T02:39:38.124Z,2.37
2022-08-14T02:42:13.561Z,2.90
2022-08-14T02:44:49.447Z,2.47
2022-08-14T02:47:20.941Z,2.70
2022-08-14T02:49:56.698Z,2.23
2022-08-14T02:52:57.460Z,2.63
2022-08-14T02:55:20.431Z,2.30
2022-08-14T02:57:58.021Z,2.83
2022-08-14T03:00:35.508Z,2.70
2022-08-14T03:03:08.493Z,2.73
2022-08-14T03:05:41.155Z,2.30
2022-08-14T03:08:15.338Z,2.73
2022-08-14T03:10:49.169Z,2.77
2022-08-14T03:13:21.503Z,2.70
2022-08-14T03:15:55.292Z,2.70
2022-08-14T03:18:32.074Z,2.63
2022-08-14T03:21:03.727Z,2.70
2022-08-14T03:23:38.265Z,3.10
2022-08-14T03:26:13.262Z,2.63
2022-08-14T03:28:51.255Z,2.70
2022-08-14T03:31:25.936Z,3.17
2022-08-14T03:33:54.655Z,2.97
2022-08-14T03:37:39.446Z,2.80
2022-08-14T03:39:22.209Z,3.27
2022-08-14T03:41:55.030Z,2.70
2022-08-14T03:45:19.789Z,2.73
2022-08-14T03:47:15.499Z,2.47
2022-08-14T03:49:50.186Z,2.70
2022-08-14T03:52:40.532Z,2.93
2022-08-14T03:55:09.900Z,2.60
2022-08-14T03:57:40.545Z,2.77
2022-08-14T04:00:43.426Z,3.00
2022-08-14T04:03:02.530Z,2.60
2022-08-14T04:05:42.515Z,3.00
2022-08-14T04:08:23.135Z,2.80
2022-08-14T04:11:01.162Z,3.20
2022-08-14T04:13:31.868Z,3.10
2022-08-14T04:16:06.766Z,3.50
2022-08-14T04:18:42.423Z,3.10
2022-08-14T04:21:11.995Z,2.73
2022-08-14T04:23:40.911Z,2.93
2022-08-14T04:26:14.540Z,2.80
2022-08-14T04:29:07.632Z,2.87
2022-08-14T04:33:10.695Z,2.97
2022-08-14T04:34:27.348Z,2.70
2022-08-14T04:37:22.419Z,3.10
2022-08-14T04:40:15.115Z,2.37
2022-08-14T04:43:00.818Z,2.83
2022-08-14T04:45:40.524Z,2.90
2022-08-14T04:48:39.999Z,2.30
2022-08-14T04:51:06.174Z,2.40
2022-08-14T04:53:42.966Z,2.33
2022-08-14T04:56:33.833Z,2.40
2022-08-14T04:59:10.438Z,2.57
2022-08-14T05:01:49.037Z,2.73
2022-08-14T05:04:21.707Z,2.97
2022-08-14T05:06:53.316Z,2.53
2022-08-14T05:09:22.489Z,2.53
2022-08-14T05:11:51.440Z,2.67
2022-08-14T05:14:46.784Z,2.57
2022-08-14T05:17:11.001Z,2.40
2022-08-14T05:19:44.647Z,2.90
2022-08-14T05:22:29.955Z,2.63
2022-08-14T05:24:58.492Z,2.50
2022-08-14T05:27:26.566Z,2.60
2022-08-14T05:29:59.268Z,2.70
2022-08-14T05:32:28.248Z,2.47
2022-08-14T05:34:59.555Z,2.47
2022-08-14T05:37:29.864Z,2.40
2022-08-14T05:40:00.942Z,3.07
2022-08-14T05:42:32.111Z,2.40
2022-08-14T05:45:05.139Z,2.20
2022-08-14T05:47:42.018Z,2.30
2022-08-14T05:50:17.354Z,2.47
2022-08-14T05:52:50.101Z,2.50
2022-08-14T05:55:22.174Z,2.43
2022-08-14T05:57:54.654Z,2.53
2022-08-14T06:00:31.670Z,2.57
2022-08-14T06:03:09.787Z,2.40
2022-08-14T06:05:40.179Z,2.70
2022-08-14T06:08:31.307Z,3.07
2022-08-14T06:11:07.404Z,2.40
2022-08-14T06:13:44.516Z,2.30
2022-08-14T06:16:13.178Z,2.47
2022-08-14T06:18:41.211Z,2.50
2022-08-14T06:21:12.869Z,2.33
2022-08-14T06:23:41.726Z,2.50
2022-08-14T06:26:11.049Z,2.20
2022-08-14T06:28:39.078Z,2.40
2022-08-14T06:31:11.199Z,2.63
2022-08-14T06:35:01.199Z,2.57
2022-08-14T06:36:29.409Z,2.43
2022-08-14T06:38:57.560Z,2.10
2022-08-14T06:41:35.941Z,2.40
2022-08-14T06:44:13.671Z,2.37
2022-08-14T06:46:42.152Z,2.37
2022-08-14T06:49:17.612Z,2.13
2022-08-14T06:51:47.028Z,2.00
2022-08-14T06:54:18.311Z,2.03
2022-08-14T06:56:54.451Z,2.40
2022-08-14T06:59:25.171Z,2.57
2022-08-14T07:02:13.207Z,2.23
2022-08-14T07:04:59.502Z,2.40
2022-08-14T07:07:39.318Z,1.90
2022-08-14T07:10:16.914Z,2.47
2022-08-14T07:13:01.999Z,2.20
2022-08-14T07:15:33.671Z,2.30
2022-08-14T07:18:03.634Z,2.00
2022-08-14T07:20:33.484Z,1.90
2022-08-14T07:23:08.675Z,2.00
2022-08-14T07:25:42.119Z,1.90
2022-08-14T07:28:20.686Z,2.27
2022-08-14T07:30:50.845Z,1.87
2022-08-14T07:33:28.943Z,2.30
2022-08-14T07:36:00.855Z,1.83
2022-08-14T07:38:37.805Z,2.10
2022-08-14T07:41:16.439Z,1.83
2022-08-14T07:43:55.137Z,1.47
2022-08-14T07:46:28.634Z,1.63
2022-08-14T07:48:57.931Z,1.90
2022-08-14T07:51:34.003Z,1.87
2022-08-14T07:54:09.843Z,1.77
2022-08-14T07:56:47.157Z,1.90
2022-08-14T07:59:18.124Z,1.70
2022-08-14T08:01:51.283Z,1.70
2022-08-14T08:04:27.074Z,2.00
2022-08-14T08:06:56.023Z,2.10
2022-08-14T08:09:32.553Z,2.00
2022-08-14T08:12:04.969Z,2.07
2022-08-14T08:14:55.538Z,2.10
2022-08-14T08:17:24.458Z,2.03
2022-08-14T08:19:52.584Z,2.20
2022-08-14T08:22:21.368Z,2.07
2022-08-14T08:24:51.382Z,1.97
2022-08-14T08:27:21.373Z,2.03
2022-08-14T08:29:50.537Z,1.90
2022-08-14T08:32:29.654Z,1.70
2022-08-14T08:34:58.251Z,1.80
2022-08-14T08:37:30.892Z,2.00
2022-08-14T08:40:11.454Z,1.70
2022-08-14T08:42:53.140Z,1.80
2022-08-14T08:45:23.645Z,1.73
2022-08-14T08:47:52.876Z,1.80
2022-08-14T08:50:31.693Z,1.87
2022-08-14T08:53:02.648Z,1.57
2022-08-14T08:55:36.669Z,2.10
2022-08-14T08:58:12.523Z,1.60
2022-08-14T09:00:49.901Z,1.80
2022-08-14T09:03:27.434Z,2.07
2022-08-14T09:05:59.184Z,2.87
2022-08-14T09:08:31.581Z,1.80
2022-08-14T09:11:19.697Z,2.20
2022-08-14T09:13:52.971Z,1.93
2022-08-14T09:16:23.671Z,1.73
2022-08-14T09:18:53.876Z,1.83
2022-08-14T09:21:24.260Z,2.00
2022-08-14T09:24:28.245Z,2.60
2022-08-14T09:26:49.349Z,1.80
2022-08-14T09:29:22.905Z,3.30
2022-08-14T09:31:58.830Z,2.20
2022-08-14T09:34:58.998Z,1.90
2022-08-14T09:37:40.264Z,1.87
2022-08-14T09:40:21.988Z,1.80
2022-08-14T09:43:03.528Z,1.73
2022-08-14T09:45:40.091Z,1.73
2022-08-14T09:48:30.172Z,2.00
2022-08-14T09:54:18.037Z,1.80
2022-08-14T09:56:43.569Z,1.90
2022-08-14T09:59:16.034Z,1.93
2022-08-14T10:01:53.167Z,1.70
2022-08-14T10:04:35.783Z,1.90
2022-08-14T10:07:08.111Z,1.90
2022-08-14T10:09:59.610Z,1.80
2022-08-14T10:12:46.529Z,1.87
2022-08-14T10:15:20.542Z,2.03
2022-08-14T10:17:49.984Z,1.90
2022-08-14T10:20:41.085Z,1.70
2022-08-14T10:23:16.132Z,2.60
2022-08-14T10:25:47.578Z,2.20
2022-08-14T10:28:39.190Z,1.97
2022-08-14T10:31:25.769Z,2.20
2022-08-14T10:34:12.929Z,1.90
2022-08-14T10:36:44.843Z,2.00
2022-08-14T10:39:19.353Z,1.80
2022-08-14T10:41:54.128Z,2.30
2022-08-14T10:44:29.546Z,2.23
2022-08-14T10:47:40.691Z,2.10
2022-08-14T10:49:59.638Z,2.13
2022-08-14T10:52:31.782Z,2.10
2022-08-14T10:55:13.226Z,2.20
2022-08-14T10:57:53.567Z,2.10
2022-08-14T11:00:29.558Z,1.90
2022-08-14T11:03:09.649Z,2.00
2022-08-14T11:05:43.902Z,2.20
2022-08-14T11:08:14.291Z,2.20
2022-08-14T11:10:48.497Z,1.90
2022-08-14T11:13:24.146Z,1.80
2022-08-14T11:15:53.540Z,1.80
2022-08-14T11:18:32.581Z,2.30
2022-08-14T11:21:09.351Z,2.07
2022-08-14T11:23:43.726Z,2.27
2022-08-14T11:26:13.731Z,1.87
2022-08-14T11:28:48.144Z,1.80
2022-08-14T11:31:23.243Z,2.30
2022-08-14T11:33:58.138Z,2.17
2022-08-14T11:36:57.223Z,1.80
2022-08-14T11:39:35.091Z,2.07
2022-08-14T11:42:55.475Z,2.10
2022-08-14T11:45:00.064Z,2.03
2022-08-14T11:47:35.512Z,1.77
2022-08-14T11:50:33.500Z,2.10
2022-08-14T11:53:05.260Z,2.10
2022-08-14T11:55:38.561Z,2.30
2022-08-14T11:58:11.079Z,2.00
2022-08-14T12:00:52.528Z,2.00
2022-08-14T12:03:37.582Z,1.90
2022-08-14T12:06:29.185Z,2.00
2022-08-14T12:09:01.260Z,1.93
2022-08-14T12:11:43.160Z,2.10
2022-08-14T12:14:29.455Z,2.30
2022-08-14T12:17:01.945Z,2.00
2022-08-14T12:19:33.402Z,2.33
2022-08-14T12:22:06.785Z,1.77
2022-08-14T12:24:36.485Z,2.00
2022-08-14T12:27:05.743Z,2.10
2022-08-14T12:29:35.254Z,1.80
2022-08-14T12:32:08.897Z,1.97
2022-08-14T12:34:45.207Z,2.17
2022-08-14T12:37:14.939Z,2.10
2022-08-14T12:39:43.044Z,2.20
2022-08-14T12:42:27.376Z,2.20
2022-08-14T12:45:03.905Z,1.73
2022-08-14T12:47:32.688Z,2.00
2022-08-14T12:50:01.241Z,2.13
2022-08-14T12:52:41.721Z,2.10
2022-08-14T12:55:22.076Z,1.97
2022-08-14T12:57:53.729Z,2.10
2022-08-14T13:00:24.523Z,1.90
2022-08-14T13:02:56.473Z,1.90
2022-08-14T13:05:29.946Z,2.00
2022-08-14T13:08:01.582Z,1.90
2022-08-14T13:10:51.259Z,2.27
2022-08-14T13:13:21.517Z,1.90
2022-08-14T13:15:57.377Z,1.97
2022-08-14T13:18:27.975Z,2.10
2022-08-14T13:20:59.671Z,2.10
2022-08-14T13:23:37.381Z,2.17
2022-08-14T13:26:07.819Z,2.00
2022-08-14T13:29:02.199Z,2.30
2022-08-14T13:31:34.412Z,1.77
2022-08-14T13:34:03.411Z,1.60
2022-08-14T13:36:55.007Z,1.90
2022-08-14T13:39:27.165Z,2.00
2022-08-14T13:41:55.863Z,1.67
2022-08-14T13:44:28.730Z,1.67
2022-08-14T13:46:58.218Z,1.80
2022-08-14T13:49:29.049Z,1.53
2022-08-14T13:52:03.437Z,1.40
2022-08-14T13:54:51.056Z,1.90
2022-08-14T13:57:30.385Z,2.10
2022-08-14T14:00:03.086Z,1.60
2022-08-14T14:02:40.851Z,1.70
2022-08-14T14:05:18.701Z,1.90
2022-08-14T14:07:53.353Z,1.67
2022-08-14T14:10:28.400Z,1.63
2022-08-14T14:12:56.810Z,1.70
2022-08-14T14:15:28.709Z,1.73
2022-08-14T14:18:03.155Z,1.80
2022-08-14T14:20:35.471Z,1.50
2022-08-14T14:23:09.645Z,1.60
2022-08-14T14:25:51.072Z,1.60
2022-08-14T14:28:31.696Z,1.87
2022-08-14T14:31:06.081Z,1.60
2022-08-14T14:33:52.186Z,1.60
2022-08-14T14:36:29.451Z,1.70
2022-08-14T14:39:01.081Z,1.50
2022-08-14T14:41:38.626Z,1.70
2022-08-14T14:44:15.891Z,1.80
2022-08-14T14:46:50.955Z,1.47
2022-08-14T14:49:25.902Z,1.60
2022-08-14T14:52:23.483Z,1.60
2022-08-14T14:54:58.766Z,1.80
2022-08-14T14:57:34.748Z,1.50
2022-08-14T15:00:12.748Z,1.63
2022-08-14T15:02:45.024Z,1.80
2022-08-14T15:05:16.030Z,1.70
2022-08-14T15:07:45.298Z,1.70
2022-08-14T15:10:27.683Z,1.90
2022-08-14T15:13:04.384Z,1.73
2022-08-14T15:15:37.424Z,1.93
2022-08-14T15:18:14.762Z,1.77
2022-08-14T15:20:57.453Z,1.60
2022-08-14T15:23:32.516Z,1.67
2022-08-14T15:26:23.418Z,1.70
2022-08-14T15:29:04.986Z,1.60
2022-08-14T15:31:37.149Z,1.80
2022-08-14T15:34:43.613Z,1.50
2022-08-14T15:37:00.567Z,1.90
2022-08-14T15:39:34.132Z,1.60
2022-08-14T15:42:14.224Z,1.53
2022-08-14T15:44:56.807Z,1.70
2022-08-14T15:47:28.679Z,1.60
2022-08-14T15:49:59.363Z,1.70
2022-08-14T15:52:54.261Z,1.53
2022-08-14T15:55:23.100Z,1.50
2022-08-14T15:58:02.429Z,1.90
2022-08-14T16:00:52.494Z,1.70
2022-08-14T16:03:24.954Z,1.67
2022-08-14T16:05:56.545Z,1.50
2022-08-14T16:08:27.212Z,1.70
2022-08-14T16:10:58.608Z,1.97
2022-08-14T16:13:41.196Z,1.50
2022-08-14T16:16:47.772Z,1.70
2022-08-14T16:19:11.147Z,2.07
2022-08-14T16:22:01.931Z,2.20
2022-08-14T16:24:35.761Z,1.90
2022-08-14T16:27:05.387Z,1.70
2022-08-14T16:29:40.774Z,1.47
2022-08-14T16:32:32.510Z,1.67
2022-08-14T16:35:04.691Z,1.53
2022-08-14T16:37:35.242Z,1.73
2022-08-14T16:40:07.595Z,2.00
2022-08-14T16:43:04.341Z,1.60
2022-08-14T16:45:31.889Z,1.80
2022-08-14T16:48:03.136Z,1.70
2022-08-14T16:50:51.211Z,1.40
2022-08-14T16:53:19.221Z,1.73
2022-08-14T16:56:23.290Z,1.60
2022-08-14T16:59:09.263Z,1.80
2022-08-14T17:01:44.062Z,1.90
2022-08-14T17:04:25.303Z,2.10
2022-08-14T17:06:57.819Z,2.30
2022-08-14T17:09:33.916Z,2.90
2022-08-14T17:12:09.355Z,2.20
2022-08-14T17:15:03.455Z,2.27
2022-08-14T17:17:49.829Z,2.37
2022-08-14T17:20:39.811Z,2.30
2022-08-14T17:23:17.942Z,2.00
2022-08-14T17:25:50.973Z,2.00
2022-08-14T17:28:50.363Z,1.77
2022-08-14T17:31:12.244Z,1.57
2022-08-14T17:33:44.824Z,2.50
2022-08-14T17:36:24.588Z,2.40
2022-08-14T17:39:06.640Z,2.27
2022-08-14T17:41:43.950Z,2.20
2022-08-14T17:44:21.905Z,1.83
2022-08-14T17:47:04.734Z,2.10
2022-08-14T17:49:40.427Z,2.10
2022-08-14T17:52:16.770Z,2.40
2022-08-14T17:54:53.056Z,1.90
2022-08-14T17:57:40.729Z,1.90
2022-08-14T18:00:14.780Z,1.70
2022-08-14T18:02:50.559Z,2.00
2022-08-14T18:05:23.201Z,1.70
2022-08-14T18:08:31.255Z,2.27
2022-08-14T18:10:55.151Z,2.40
2022-08-14T18:13:51.299Z,2.60
2022-08-14T18:16:20.404Z,1.70
2022-08-14T18:18:51.971Z,1.80
2022-08-14T18:21:41.113Z,1.70
2022-08-14T18:24:19.967Z,2.07
2022-08-14T18:27:08.791Z,1.70
2022-08-14T18:29:55.568Z,2.00
2022-08-14T18:32:47.276Z,2.20
2022-08-14T18:35:46.204Z,1.53
2022-08-14T18:38:25.963Z,1.90
2022-08-14T18:44:17.650Z,1.50
2022-08-14T18:47:24.426Z,1.70
2022-08-14T18:50:27.810Z,1.63
2022-08-14T18:53:07.609Z,1.50
2022-08-14T18:55:52.991Z,1.70
2022-08-14T18:58:31.568Z,2.00
2022-08-14T19:01:06.476Z,2.20
2022-08-14T19:03:58.874Z,2.43
2022-08-14T19:06:56.671Z,2.47
2022-08-14T19:09:57.793Z,2.60
2022-08-14T19:13:00.266Z,2.10
2022-08-14T19:15:33.007Z,2.17
2022-08-14T19:18:27.951Z,2.30
2022-08-14T19:21:00.885Z,2.03
2022-08-14T19:23:42.397Z,2.20
2022-08-14T19:26:36.341Z,2.20
2022-08-14T19:29:37.772Z,2.67
2022-08-14T19:32:39.387Z,2.50
2022-08-14T19:35:49.351Z,2.43
2022-08-14T19:39:04.180Z,2.30
2022-08-14T19:41:35.497Z,2.47
2022-08-14T19:44:10.921Z,2.50
2022-08-14T19:47:01.685Z,2.37
2022-08-14T19:50:30.487Z,2.60
2022-08-14T19:52:29.967Z,2.50
2022-08-14T19:54:58.945Z,2.50
2022-08-14T19:57:29.444Z,2.43
2022-08-14T20:00:05.573Z,2.47
2022-08-14T20:02:41.870Z,2.10
2022-08-14T20:05:12.367Z,2.30
2022-08-14T20:08:00.546Z,2.77
2022-08-14T20:11:03.586Z,2.30
2022-08-14T20:13:32.746Z,2.50
2022-08-14T20:16:12.072Z,1.97
2022-08-14T20:18:48.775Z,2.20
2022-08-14T20:21:19.955Z,2.20
2022-08-14T20:23:50.068Z,2.37
2022-08-14T20:26:31.844Z,2.10
2022-08-14T20:29:06.794Z,2.03
2022-08-14T20:31:38.399Z,2.30
2022-08-14T20:34:19.002Z,2.73
2022-08-14T20:37:04.543Z,2.20
2022-08-14T20:39:40.404Z,2.27
2022-08-14T20:42:32.990Z,2.60
2022-08-14T20:45:24.311Z,2.07
2022-08-14T20:48:01.165Z,2.37
2022-08-14T20:50:31.831Z,2.20
2022-08-14T20:53:05.634Z,2.43
2022-08-14T20:55:41.773Z,2.17
2022-08-14T20:58:44.053Z,2.30
2022-08-14T21:01:35.707Z,2.53
2022-08-14T21:04:22.104Z,2.60
2022-08-14T21:07:24.942Z,2.53
2022-08-14T21:10:06.515Z,2.27
2022-08-14T21:12:36.003Z,2.50
2022-08-14T21:15:11.032Z,2.27
2022-08-14T21:17:43.213Z,2.13
2022-08-14T21:20:21.358Z,2.33
2022-08-14T21:23:00.339Z,2.50
2022-08-14T21:25:31.427Z,2.10
2022-08-14T21:28:04.175Z,2.40
2022-08-14T21:30:51.241Z,2.00
2022-08-14T21:33:23.561Z,2.20
2022-08-14T21:35:54.905Z,2.23
2022-08-14T21:38:33.764Z,2.10
2022-08-14T21:41:42.385Z,2.07
2022-08-14T21:44:05.318Z,2.00
2022-08-14T21:46:50.284Z,1.87
2022-08-14T21:49:23.687Z,2.07
2022-08-14T21:52:00.984Z,2.03
2022-08-14T21:54:50.104Z,2.00
2022-08-14T21:57:55.695Z,2.30
2022-08-14T22:00:35.607Z,2.20
2022-08-14T22:03:03.175Z,2.40
2022-08-14T22:05:33.641Z,2.20
2022-08-14T22:08:12.323Z,2.40
2022-08-14T22:10:44.808Z,2.20
2022-08-14T22:13:17.377Z,2.20
2022-08-14T22:15:50.028Z,2.43
2022-08-14T22:18:21.873Z,2.40
2022-08-14T22:20:56.500Z,2.40
2022-08-14T22:23:27.291Z,2.37
2022-08-14T22:25:56.061Z,2.37
2022-08-14T22:28:32.762Z,2.50
2022-08-14T22:31:03.177Z,2.57
2022-08-14T22:33:32.236Z,1.93
2022-08-14T22:36:25.204Z,2.30
2022-08-14T22:38:54.293Z,2.50
2022-08-14T22:41:29.705Z,2.40
2022-08-14T22:44:04.249Z,2.40
2022-08-14T22:46:34.946Z,2.27
2022-08-14T22:49:15.365Z,2.30
2022-08-14T22:51:53.750Z,2.17
2022-08-14T22:54:52.437Z,2.10
2022-08-14T22:57:12.443Z,2.27
2022-08-14T22:59:40.838Z,2.30
2022-08-14T23:02:13.564Z,2.27
2022-08-14T23:04:53.739Z,2.30
2022-08-14T23:07:24.190Z,2.30
2022-08-14T23:09:56.446Z,2.20
2022-08-14T23:12:29.435Z,2.30
2022-08-14T23:15:00.218Z,2.20
2022-08-14T23:17:39.540Z,2.53
2022-08-14T23:20:19.037Z,2.27
2022-08-14T23:22:54.317Z,2.60
2022-08-14T23:25:57.483Z,2.40
2022-08-14T23:28:34.762Z,2.23
2022-08-14T23:31:09.271Z,2.47
2022-08-14T23:33:41.974Z,2.70
2022-08-14T23:36:32.065Z,2.30
2022-08-14T23:39:10.152Z,2.63
2022-08-14T23:41:46.848Z,2.30
2022-08-14T23:44:23.600Z,2.60
2022-08-14T23:46:57.060Z,2.70
2022-08-14T23:49:57.055Z,2.33
2022-08-14T23:52:50.374Z,2.57
2022-08-14T23:55:11.198Z,2.30
2022-08-14T23:57:43.945Z,2.40
